sensor_id;sensor_type;location;lat;lon;timestamp;P1;durP1;ratioP1;P2;durP2;ratioP2
19889;SDS011;10107;51.198;6.824;2023-06-14T00:00:07;6.93;;;6.10;;
19889;SDS011;10107;51.198;6.824;2023-06-14T00:04:10;8.37;;;6.17;;
19889;SDS011;10107;51.198;6.824;2023-06-14T00:08:12;6.32;;;5.70;;
19889;SDS011;10107;51.198;6.824;2023-06-14T00:12:16;7.13;;;6.03;;
19889;SDS011;10107;51.198;6.824;2023-06-14T00:16:18;7.45;;;5.90;;
19889;SDS011;10107;51.198;6.824;2023-06-14T00:20:21;7.75;;;6.15;;
19889;SDS011;10107;51.198;6.824;2023-06-14T00:24:22;8.40;;;6.40;;
19889;SDS011;10107;51.198;6.824;2023-06-14T00:28:28;6.55;;;5.65;;
19889;SDS011;10107;51.198;6.824;2023-06-14T00:32:30;7.22;;;6.15;;
19889;SDS011;10107;51.198;6.824;2023-06-14T00:36:32;6.00;;;5.40;;
19889;SDS011;10107;51.198;6.824;2023-06-14T00:40:35;6.22;;;5.63;;
19889;SDS011;10107;51.198;6.824;2023-06-14T00:44:38;4.77;;;4.30;;
19889;SDS011;10107;51.198;6.824;2023-06-14T00:48:41;6.88;;;5.50;;
19889;SDS011;10107;51.198;6.824;2023-06-14T00:52:43;7.75;;;6.53;;
19889;SDS011;10107;51.198;6.824;2023-06-14T00:56:45;7.70;;;6.25;;
19889;SDS011;10107;51.198;6.824;2023-06-14T01:00:50;6.95;;;5.90;;
19889;SDS011;10107;51.198;6.824;2023-06-14T01:04:52;7.18;;;6.13;;
19889;SDS011;10107;51.198;6.824;2023-06-14T01:09:01;6.85;;;5.72;;
19889;SDS011;10107;51.198;6.824;2023-06-14T01:13:12;6.80;;;6.10;;
19889;SDS011;10107;51.198;6.824;2023-06-14T01:17:23;7.35;;;6.45;;
19889;SDS011;10107;51.198;6.824;2023-06-14T01:21:27;7.05;;;6.15;;
19889;SDS011;10107;51.198;6.824;2023-06-14T01:25:31;6.78;;;6.07;;
19889;SDS011;10107;51.198;6.824;2023-06-14T01:29:35;7.93;;;5.93;;
19889;SDS011;10107;51.198;6.824;2023-06-14T01:33:40;5.85;;;5.25;;
19889;SDS011;10107;51.198;6.824;2023-06-14T01:37:44;6.95;;;5.70;;
19889;SDS011;10107;51.198;6.824;2023-06-14T01:41:53;7.05;;;6.07;;
19889;SDS011;10107;51.198;6.824;2023-06-14T01:45:54;6.32;;;5.55;;
19889;SDS011;10107;51.198;6.824;2023-06-14T01:50:02;6.55;;;5.85;;
19889;SDS011;10107;51.198;6.824;2023-06-14T01:54:04;6.57;;;5.70;;
19889;SDS011;10107;51.198;6.824;2023-06-14T01:58:08;6.85;;;5.72;;
19889;SDS011;10107;51.198;6.824;2023-06-14T02:02:10;7.63;;;6.25;;
19889;SDS011;10107;51.198;6.824;2023-06-14T02:06:12;6.78;;;5.82;;
19889;SDS011;10107;51.198;6.824;2023-06-14T02:10:16;7.72;;;5.70;;
19889;SDS011;10107;51.198;6.824;2023-06-14T02:14:20;8.77;;;6.13;;
19889;SDS011;10107;51.198;6.824;2023-06-14T02:18:23;6.30;;;5.70;;
19889;SDS011;10107;51.198;6.824;2023-06-14T02:22:24;6.20;;;5.45;;
19889;SDS011;10107;51.198;6.824;2023-06-14T02:26:27;7.47;;;6.05;;
19889;SDS011;10107;51.198;6.824;2023-06-14T02:30:31;6.95;;;6.25;;
19889;SDS011;10107;51.198;6.824;2023-06-14T02:34:33;6.55;;;5.82;;
19889;SDS011;10107;51.198;6.824;2023-06-14T02:38:36;6.43;;;5.65;;
19889;SDS011;10107;51.198;6.824;2023-06-14T02:42:37;7.32;;;5.68;;
19889;SDS011;10107;51.198;6.824;2023-06-14T02:46:41;6.50;;;5.60;;
19889;SDS011;10107;51.198;6.824;2023-06-14T02:50:45;6.70;;;6.00;;
19889;SDS011;10107;51.198;6.824;2023-06-14T02:54:47;6.28;;;5.65;;
19889;SDS011;10107;51.198;6.824;2023-06-14T02:58:50;6.07;;;5.47;;
19889;SDS011;10107;51.198;6.824;2023-06-14T03:02:54;7.30;;;6.13;;
19889;SDS011;10107;51.198;6.824;2023-06-14T03:06:55;6.65;;;5.95;;
19889;SDS011;10107;51.198;6.824;2023-06-14T03:10:58;8.27;;;6.10;;
19889;SDS011;10107;51.198;6.824;2023-06-14T03:15:01;7.37;;;5.90;;
19889;SDS011;10107;51.198;6.824;2023-06-14T03:19:07;6.97;;;6.28;;
19889;SDS011;10107;51.198;6.824;2023-06-14T03:23:09;7.68;;;5.90;;
19889;SDS011;10107;51.198;6.824;2023-06-14T03:27:12;7.70;;;5.80;;
19889;SDS011;10107;51.198;6.824;2023-06-14T03:31:18;8.13;;;6.28;;
19889;SDS011;10107;51.198;6.824;2023-06-14T03:35:26;6.72;;;6.03;;
19889;SDS011;10107;51.198;6.824;2023-06-14T03:39:30;7.88;;;6.53;;
19889;SDS011;10107;51.198;6.824;2023-06-14T03:43:31;7.15;;;6.07;;
19889;SDS011;10107;51.198;6.824;2023-06-14T03:47:35;7.13;;;5.82;;
19889;SDS011;10107;51.198;6.824;2023-06-14T03:51:39;7.80;;;6.40;;
19889;SDS011;10107;51.198;6.824;2023-06-14T03:55:41;6.47;;;5.80;;
19889;SDS011;10107;51.198;6.824;2023-06-14T03:59:42;7.57;;;6.13;;
19889;SDS011;10107;51.198;6.824;2023-06-14T04:03:45;6.82;;;6.10;;
19889;SDS011;10107;51.198;6.824;2023-06-14T04:07:48;7.57;;;6.40;;
19889;SDS011;10107;51.198;6.824;2023-06-14T04:11:51;7.43;;;5.63;;
19889;SDS011;10107;51.198;6.824;2023-06-14T04:15:53;6.97;;;5.93;;
19889;SDS011;10107;51.198;6.824;2023-06-14T04:20:02;6.60;;;5.80;;
19889;SDS011;10107;51.198;6.824;2023-06-14T04:28:17;7.57;;;6.15;;
19889;SDS011;10107;51.198;6.824;2023-06-14T04:36:23;7.05;;;5.93;;
19889;SDS011;10107;51.198;6.824;2023-06-14T04:40:26;7.80;;;6.00;;
19889;SDS011;10107;51.198;6.824;2023-06-14T04:44:28;9.40;;;6.00;;
19889;SDS011;10107;51.198;6.824;2023-06-14T04:48:33;7.43;;;5.93;;
19889;SDS011;10107;51.198;6.824;2023-06-14T04:52:35;7.50;;;5.88;;
19889;SDS011;10107;51.198;6.824;2023-06-14T04:56:40;9.85;;;6.07;;
19889;SDS011;10107;51.198;6.824;2023-06-14T05:00:44;8.48;;;5.95;;
19889;SDS011;10107;51.198;6.824;2023-06-14T05:04:46;10.65;;;6.25;;
19889;SDS011;10107;51.198;6.824;2023-06-14T05:08:48;8.02;;;5.90;;
19889;SDS011;10107;51.198;6.824;2023-06-14T05:12:51;10.05;;;5.60;;
19889;SDS011;10107;51.198;6.824;2023-06-14T05:16:54;8.13;;;5.40;;
19889;SDS011;10107;51.198;6.824;2023-06-14T05:20:57;7.10;;;5.18;;
19889;SDS011;10107;51.198;6.824;2023-06-14T05:24:59;6.82;;;4.90;;
19889;SDS011;10107;51.198;6.824;2023-06-14T05:29:02;6.13;;;4.93;;
19889;SDS011;10107;51.198;6.824;2023-06-14T05:33:03;7.03;;;5.15;;
19889;SDS011;10107;51.198;6.824;2023-06-14T05:37:05;6.07;;;4.90;;
19889;SDS011;10107;51.198;6.824;2023-06-14T05:41:07;7.15;;;4.60;;
19889;SDS011;10107;51.198;6.824;2023-06-14T05:45:10;6.30;;;4.65;;
19889;SDS011;10107;51.198;6.824;2023-06-14T05:53:13;6.15;;;4.38;;
19889;SDS011;10107;51.198;6.824;2023-06-14T05:57:15;5.93;;;4.53;;
19889;SDS011;10107;51.198;6.824;2023-06-14T06:01:18;5.03;;;4.18;;
19889;SDS011;10107;51.198;6.824;2023-06-14T06:05:20;4.72;;;4.28;;
19889;SDS011;10107;51.198;6.824;2023-06-14T06:09:21;6.57;;;4.40;;
19889;SDS011;10107;51.198;6.824;2023-06-14T06:13:23;4.82;;;4.15;;
19889;SDS011;10107;51.198;6.824;2023-06-14T06:17:26;10.23;;;4.30;;
19889;SDS011;10107;51.198;6.824;2023-06-14T06:21:28;4.53;;;3.88;;
19889;SDS011;10107;51.198;6.824;2023-06-14T06:25:29;5.53;;;3.80;;
19889;SDS011;10107;51.198;6.824;2023-06-14T06:29:31;5.33;;;3.70;;
19889;SDS011;10107;51.198;6.824;2023-06-14T06:33:34;5.78;;;3.67;;
19889;SDS011;10107;51.198;6.824;2023-06-14T06:37:37;5.22;;;4.00;;
19889;SDS011;10107;51.198;6.824;2023-06-14T06:41:38;6.03;;;3.83;;
19889;SDS011;10107;51.198;6.824;2023-06-14T06:45:40;6.15;;;3.58;;
19889;SDS011;10107;51.198;6.824;2023-06-14T06:49:43;6.10;;;3.58;;
19889;SDS011;10107;51.198;6.824;2023-06-14T06:53:51;6.85;;;3.00;;
19889;SDS011;10107;51.198;6.824;2023-06-14T06:57:53;5.50;;;2.92;;
19889;SDS011;10107;51.198;6.824;2023-06-14T07:01:55;4.07;;;2.85;;
19889;SDS011;10107;51.198;6.824;2023-06-14T07:05:58;3.95;;;2.70;;
19889;SDS011;10107;51.198;6.824;2023-06-14T07:09:59;4.50;;;2.55;;
19889;SDS011;10107;51.198;6.824;2023-06-14T07:14:04;5.82;;;2.65;;
19889;SDS011;10107;51.198;6.824;2023-06-14T07:18:09;3.95;;;2.92;;
19889;SDS011;10107;51.198;6.824;2023-06-14T07:22:11;4.00;;;2.20;;
19889;SDS011;10107;51.198;6.824;2023-06-14T07:26:13;5.97;;;2.40;;
19889;SDS011;10107;51.198;6.824;2023-06-14T07:30:15;4.20;;;2.43;;
19889;SDS011;10107;51.198;6.824;2023-06-14T07:34:17;3.00;;;2.28;;
19889;SDS011;10107;51.198;6.824;2023-06-14T07:38:20;3.65;;;2.35;;
19889;SDS011;10107;51.198;6.824;2023-06-14T07:42:21;2.80;;;2.47;;
19889;SDS011;10107;51.198;6.824;2023-06-14T07:46:23;3.63;;;2.40;;
19889;SDS011;10107;51.198;6.824;2023-06-14T07:50:25;4.65;;;2.40;;
19889;SDS011;10107;51.198;6.824;2023-06-14T07:54:28;2.70;;;2.13;;
19889;SDS011;10107;51.198;6.824;2023-06-14T07:58:30;3.53;;;2.17;;
19889;SDS011;10107;51.198;6.824;2023-06-14T08:02:32;3.53;;;2.20;;
19889;SDS011;10107;51.198;6.824;2023-06-14T08:06:33;3.58;;;2.35;;
19889;SDS011;10107;51.198;6.824;2023-06-14T08:10:36;3.08;;;2.55;;
19889;SDS011;10107;51.198;6.824;2023-06-14T08:14:38;3.53;;;2.20;;
19889;SDS011;10107;51.198;6.824;2023-06-14T08:18:41;5.68;;;2.40;;
19889;SDS011;10107;51.198;6.824;2023-06-14T08:22:43;2.60;;;1.90;;
19889;SDS011;10107;51.198;6.824;2023-06-14T08:26:47;2.00;;;1.80;;
19889;SDS011;10107;51.198;6.824;2023-06-14T08:30:49;3.97;;;2.00;;
19889;SDS011;10107;51.198;6.824;2023-06-14T08:34:51;2.38;;;2.17;;
19889;SDS011;10107;51.198;6.824;2023-06-14T08:38:52;3.05;;;2.13;;
19889;SDS011;10107;51.198;6.824;2023-06-14T08:42:55;4.72;;;2.38;;
19889;SDS011;10107;51.198;6.824;2023-06-14T08:46:58;5.38;;;1.90;;
19889;SDS011;10107;51.198;6.824;2023-06-14T08:55:03;4.20;;;2.33;;
19889;SDS011;10107;51.198;6.824;2023-06-14T08:59:07;3.78;;;1.92;;
19889;SDS011;10107;51.198;6.824;2023-06-14T09:03:10;5.45;;;2.60;;
19889;SDS011;10107;51.198;6.824;2023-06-14T09:07:13;4.13;;;2.10;;
19889;SDS011;10107;51.198;6.824;2023-06-14T09:11:16;7.05;;;1.83;;
19889;SDS011;10107;51.198;6.824;2023-06-14T09:15:20;1.83;;;1.60;;
19889;SDS011;10107;51.198;6.824;2023-06-14T09:19:22;4.35;;;1.90;;
19889;SDS011;10107;51.198;6.824;2023-06-14T09:23:25;5.10;;;1.70;;
19889;SDS011;10107;51.198;6.824;2023-06-14T09:27:26;3.13;;;1.80;;
19889;SDS011;10107;51.198;6.824;2023-06-14T09:31:30;3.47;;;1.90;;
19889;SDS011;10107;51.198;6.824;2023-06-14T09:35:33;4.45;;;1.80;;
19889;SDS011;10107;51.198;6.824;2023-06-14T09:39:34;5.80;;;1.90;;
19889;SDS011;10107;51.198;6.824;2023-06-14T09:43:36;1.85;;;1.60;;
19889;SDS011;10107;51.198;6.824;2023-06-14T09:51:43;4.45;;;2.00;;
19889;SDS011;10107;51.198;6.824;2023-06-14T09:55:46;4.07;;;1.85;;
19889;SDS011;10107;51.198;6.824;2023-06-14T09:59:52;7.88;;;2.20;;
19889;SDS011;10107;51.198;6.824;2023-06-14T10:04:00;4.03;;;2.15;;
19889;SDS011;10107;51.198;6.824;2023-06-14T10:08:04;2.20;;;2.00;;
19889;SDS011;10107;51.198;6.824;2023-06-14T10:12:09;3.70;;;2.00;;
19889;SDS011;10107;51.198;6.824;2023-06-14T10:16:17;3.97;;;1.90;;
19889;SDS011;10107;51.198;6.824;2023-06-14T10:20:26;2.10;;;1.90;;
19889;SDS011;10107;51.198;6.824;2023-06-14T10:24:32;3.22;;;1.80;;
19889;SDS011;10107;51.198;6.824;2023-06-14T10:28:37;3.35;;;1.88;;
19889;SDS011;10107;51.198;6.824;2023-06-14T10:37:06;3.13;;;1.88;;
19889;SDS011;10107;51.198;6.824;2023-06-14T10:41:13;2.50;;;1.70;;
19889;SDS011;10107;51.198;6.824;2023-06-14T10:45:18;2.97;;;2.00;;
19889;SDS011;10107;51.198;6.824;2023-06-14T10:49:20;2.05;;;1.80;;
19889;SDS011;10107;51.198;6.824;2023-06-14T10:53:44;1.63;;;1.50;;
19889;SDS011;10107;51.198;6.824;2023-06-14T10:57:47;3.90;;;1.90;;
19889;SDS011;10107;51.198;6.824;2023-06-14T11:01:55;2.03;;;1.83;;
19889;SDS011;10107;51.198;6.824;2023-06-14T11:06:12;2.47;;;1.90;;
19889;SDS011;10107;51.198;6.824;2023-06-14T11:10:20;2.90;;;1.67;;
19889;SDS011;10107;51.198;6.824;2023-06-14T11:14:32;3.60;;;2.20;;
19889;SDS011;10107;51.198;6.824;2023-06-14T11:18:34;2.97;;;1.85;;
19889;SDS011;10107;51.198;6.824;2023-06-14T11:22:40;3.00;;;1.83;;
19889;SDS011;10107;51.198;6.824;2023-06-14T11:26:44;4.22;;;2.05;;
19889;SDS011;10107;51.198;6.824;2023-06-14T11:30:45;2.63;;;1.75;;
19889;SDS011;10107;51.198;6.824;2023-06-14T11:34:47;4.43;;;1.92;;
19889;SDS011;10107;51.198;6.824;2023-06-14T11:38:49;4.85;;;2.00;;
19889;SDS011;10107;51.198;6.824;2023-06-14T11:42:57;5.95;;;1.90;;
19889;SDS011;10107;51.198;6.824;2023-06-14T11:47:03;4.97;;;2.00;;
19889;SDS011;10107;51.198;6.824;2023-06-14T11:51:05;2.75;;;2.10;;
19889;SDS011;10107;51.198;6.824;2023-06-14T11:55:07;4.00;;;1.58;;
19889;SDS011;10107;51.198;6.824;2023-06-14T11:59:12;2.70;;;1.75;;
19889;SDS011;10107;51.198;6.824;2023-06-14T12:03:14;3.35;;;1.83;;
19889;SDS011;10107;51.198;6.824;2023-06-14T12:07:17;2.70;;;1.90;;
19889;SDS011;10107;51.198;6.824;2023-06-14T12:11:20;3.63;;;1.90;;
19889;SDS011;10107;51.198;6.824;2023-06-14T12:15:23;1.95;;;1.60;;
19889;SDS011;10107;51.198;6.824;2023-06-14T12:19:25;3.55;;;1.80;;
19889;SDS011;10107;51.198;6.824;2023-06-14T12:23:27;2.13;;;1.80;;
19889;SDS011;10107;51.198;6.824;2023-06-14T12:27:40;3.63;;;1.60;;
19889;SDS011;10107;51.198;6.824;2023-06-14T12:31:43;6.25;;;2.20;;
19889;SDS011;10107;51.198;6.824;2023-06-14T12:35:45;2.88;;;2.00;;
19889;SDS011;10107;51.198;6.824;2023-06-14T12:39:46;1.80;;;1.30;;
19889;SDS011;10107;51.198;6.824;2023-06-14T12:43:48;3.05;;;1.70;;
19889;SDS011;10107;51.198;6.824;2023-06-14T12:47:51;7.32;;;2.00;;
19889;SDS011;10107;51.198;6.824;2023-06-14T12:51:53;3.85;;;1.50;;
19889;SDS011;10107;51.198;6.824;2023-06-14T12:55:54;2.85;;;1.80;;
19889;SDS011;10107;51.198;6.824;2023-06-14T12:59:56;2.00;;;1.52;;
19889;SDS011;10107;51.198;6.824;2023-06-14T13:03:59;5.00;;;1.70;;
19889;SDS011;10107;51.198;6.824;2023-06-14T13:12:02;2.00;;;1.80;;
19889;SDS011;10107;51.198;6.824;2023-06-14T13:16:05;2.83;;;1.65;;
19889;SDS011;10107;51.198;6.824;2023-06-14T13:20:08;2.05;;;1.85;;
19889;SDS011;10107;51.198;6.824;2023-06-14T13:24:11;4.20;;;2.00;;
19889;SDS011;10107;51.198;6.824;2023-06-14T13:28:12;5.75;;;2.13;;
19889;SDS011;10107;51.198;6.824;2023-06-14T13:32:14;2.58;;;2.00;;
19889;SDS011;10107;51.198;6.824;2023-06-14T13:36:17;3.13;;;1.98;;
19889;SDS011;10107;51.198;6.824;2023-06-14T13:44:20;3.65;;;2.28;;
19889;SDS011;10107;51.198;6.824;2023-06-14T13:48:22;2.85;;;2.40;;
19889;SDS011;10107;51.198;6.824;2023-06-14T13:52:25;5.18;;;2.38;;
19889;SDS011;10107;51.198;6.824;2023-06-14T13:56:27;5.53;;;2.67;;
19889;SDS011;10107;51.198;6.824;2023-06-14T14:00:30;3.78;;;2.55;;
19889;SDS011;10107;51.198;6.824;2023-06-14T14:04:32;3.60;;;2.20;;
19889;SDS011;10107;51.198;6.824;2023-06-14T14:08:36;2.83;;;2.50;;
19889;SDS011;10107;51.198;6.824;2023-06-14T14:12:38;5.93;;;2.20;;
19889;SDS011;10107;51.198;6.824;2023-06-14T14:16:39;2.50;;;2.30;;
19889;SDS011;10107;51.198;6.824;2023-06-14T14:20:41;3.10;;;2.33;;
19889;SDS011;10107;51.198;6.824;2023-06-14T14:24:45;3.30;;;2.47;;
19889;SDS011;10107;51.198;6.824;2023-06-14T14:28:47;2.78;;;2.58;;
19889;SDS011;10107;51.198;6.824;2023-06-14T14:32:48;3.65;;;2.40;;
19889;SDS011;10107;51.198;6.824;2023-06-14T14:36:51;2.72;;;2.38;;
19889;SDS011;10107;51.198;6.824;2023-06-14T14:40:57;4.05;;;2.55;;
19889;SDS011;10107;51.198;6.824;2023-06-14T14:44:59;3.63;;;2.22;;
19889;SDS011;10107;51.198;6.824;2023-06-14T14:49:00;4.70;;;2.50;;
19889;SDS011;10107;51.198;6.824;2023-06-14T14:53:02;3.38;;;2.88;;
19889;SDS011;10107;51.198;6.824;2023-06-14T14:57:06;3.00;;;2.67;;
19889;SDS011;10107;51.198;6.824;2023-06-14T15:01:08;4.43;;;2.40;;
19889;SDS011;10107;51.198;6.824;2023-06-14T15:05:10;3.83;;;2.80;;
19889;SDS011;10107;51.198;6.824;2023-06-14T15:09:12;7.88;;;2.50;;
19889;SDS011;10107;51.198;6.824;2023-06-14T15:13:16;3.37;;;2.30;;
19889;SDS011;10107;51.198;6.824;2023-06-14T15:17:18;3.78;;;2.88;;
19889;SDS011;10107;51.198;6.824;2023-06-14T15:21:23;4.60;;;2.70;;
19889;SDS011;10107;51.198;6.824;2023-06-14T15:25:25;3.67;;;3.08;;
19889;SDS011;10107;51.198;6.824;2023-06-14T15:29:28;5.45;;;2.95;;
19889;SDS011;10107;51.198;6.824;2023-06-14T15:33:30;7.03;;;2.97;;
19889;SDS011;10107;51.198;6.824;2023-06-14T15:37:32;3.55;;;2.97;;
19889;SDS011;10107;51.198;6.824;2023-06-14T15:41:34;4.40;;;2.70;;
19889;SDS011;10107;51.198;6.824;2023-06-14T15:45:37;3.80;;;2.58;;
19889;SDS011;10107;51.198;6.824;2023-06-14T15:49:39;2.60;;;2.40;;
19889;SDS011;10107;51.198;6.824;2023-06-14T15:53:41;3.83;;;2.70;;
19889;SDS011;10107;51.198;6.824;2023-06-14T15:57:42;5.22;;;3.00;;
19889;SDS011;10107;51.198;6.824;2023-06-14T16:01:45;2.95;;;2.70;;
19889;SDS011;10107;51.198;6.824;2023-06-14T16:05:47;4.07;;;2.90;;
19889;SDS011;10107;51.198;6.824;2023-06-14T16:09:48;2.92;;;2.50;;
19889;SDS011;10107;51.198;6.824;2023-06-14T16:13:50;3.35;;;3.00;;
19889;SDS011;10107;51.198;6.824;2023-06-14T16:17:53;4.07;;;2.90;;
19889;SDS011;10107;51.198;6.824;2023-06-14T16:21:54;4.65;;;2.97;;
19889;SDS011;10107;51.198;6.824;2023-06-14T16:25:56;4.95;;;3.03;;
19889;SDS011;10107;51.198;6.824;2023-06-14T16:29:58;3.08;;;2.78;;
19889;SDS011;10107;51.198;6.824;2023-06-14T16:34:01;4.30;;;2.80;;
19889;SDS011;10107;51.198;6.824;2023-06-14T16:38:05;3.10;;;2.80;;
19889;SDS011;10107;51.198;6.824;2023-06-14T16:42:06;3.38;;;2.92;;
19889;SDS011;10107;51.198;6.824;2023-06-14T16:46:08;2.80;;;2.60;;
19889;SDS011;10107;51.198;6.824;2023-06-14T16:50:12;4.45;;;3.08;;
19889;SDS011;10107;51.198;6.824;2023-06-14T16:54:14;3.55;;;2.60;;
19889;SDS011;10107;51.198;6.824;2023-06-14T16:58:16;3.50;;;2.92;;
19889;SDS011;10107;51.198;6.824;2023-06-14T17:02:17;3.53;;;3.22;;
19889;SDS011;10107;51.198;6.824;2023-06-14T17:06:20;4.28;;;2.75;;
19889;SDS011;10107;51.198;6.824;2023-06-14T17:10:24;4.80;;;3.05;;
19889;SDS011;10107;51.198;6.824;2023-06-14T17:14:26;3.92;;;3.15;;
19889;SDS011;10107;51.198;6.824;2023-06-14T17:18:28;5.28;;;3.20;;
19889;SDS011;10107;51.198;6.824;2023-06-14T17:22:31;3.53;;;3.17;;
19889;SDS011;10107;51.198;6.824;2023-06-14T17:26:33;4.35;;;2.90;;
19889;SDS011;10107;51.198;6.824;2023-06-14T17:30:35;3.35;;;3.05;;
19889;SDS011;10107;51.198;6.824;2023-06-14T17:34:36;4.10;;;2.78;;
19889;SDS011;10107;51.198;6.824;2023-06-14T17:38:40;4.78;;;3.30;;
19889;SDS011;10107;51.198;6.824;2023-06-14T17:42:42;3.95;;;3.15;;
19889;SDS011;10107;51.198;6.824;2023-06-14T17:46:43;2.85;;;2.58;;
19889;SDS011;10107;51.198;6.824;2023-06-14T17:50:45;4.85;;;3.20;;
19889;SDS011;10107;51.198;6.824;2023-06-14T17:54:48;5.57;;;3.40;;
19889;SDS011;10107;51.198;6.824;2023-06-14T17:58:50;4.40;;;3.33;;
19889;SDS011;10107;51.198;6.824;2023-06-14T18:02:52;3.53;;;3.00;;
19889;SDS011;10107;51.198;6.824;2023-06-14T18:06:56;5.38;;;2.85;;
19889;SDS011;10107;51.198;6.824;2023-06-14T18:11:01;6.75;;;3.00;;
19889;SDS011;10107;51.198;6.824;2023-06-14T18:15:04;4.88;;;3.00;;
19889;SDS011;10107;51.198;6.824;2023-06-14T18:19:06;3.67;;;2.65;;
19889;SDS011;10107;51.198;6.824;2023-06-14T18:23:09;3.30;;;2.75;;
19889;SDS011;10107;51.198;6.824;2023-06-14T18:27:12;4.88;;;2.80;;
19889;SDS011;10107;51.198;6.824;2023-06-14T18:31:14;5.13;;;2.70;;
19889;SDS011;10107;51.198;6.824;2023-06-14T18:35:15;3.00;;;2.70;;
19889;SDS011;10107;51.198;6.824;2023-06-14T18:39:17;3.65;;;2.95;;
19889;SDS011;10107;51.198;6.824;2023-06-14T18:43:20;3.60;;;2.65;;
19889;SDS011;10107;51.198;6.824;2023-06-14T18:47:22;3.05;;;2.75;;
19889;SDS011;10107;51.198;6.824;2023-06-14T18:51:25;4.03;;;2.75;;
19889;SDS011;10107;51.198;6.824;2023-06-14T18:55:27;4.10;;;3.50;;
19889;SDS011;10107;51.198;6.824;2023-06-14T18:59:30;2.90;;;2.55;;
19889;SDS011;10107;51.198;6.824;2023-06-14T19:03:32;3.67;;;2.80;;
19889;SDS011;10107;51.198;6.824;2023-06-14T19:07:33;2.90;;;2.60;;
19889;SDS011;10107;51.198;6.824;2023-06-14T19:11:35;3.88;;;3.00;;
19889;SDS011;10107;51.198;6.824;2023-06-14T19:15:38;3.13;;;2.38;;
19889;SDS011;10107;51.198;6.824;2023-06-14T19:19:40;2.40;;;2.20;;
19889;SDS011;10107;51.198;6.824;2023-06-14T19:23:43;3.65;;;2.42;;
19889;SDS011;10107;51.198;6.824;2023-06-14T19:27:45;3.67;;;2.38;;
19889;SDS011;10107;51.198;6.824;2023-06-14T19:31:48;4.20;;;2.80;;
19889;SDS011;10107;51.198;6.824;2023-06-14T19:35:54;2.90;;;2.60;;
19889;SDS011;10107;51.198;6.824;2023-06-14T19:39:57;3.42;;;2.55;;
19889;SDS011;10107;51.198;6.824;2023-06-14T19:43:58;3.50;;;2.70;;
19889;SDS011;10107;51.198;6.824;2023-06-14T19:48:04;2.43;;;2.23;;
19889;SDS011;10107;51.198;6.824;2023-06-14T19:52:07;2.80;;;2.50;;
19889;SDS011;10107;51.198;6.824;2023-06-14T19:56:09;2.92;;;2.53;;
19889;SDS011;10107;51.198;6.824;2023-06-14T20:04:17;4.15;;;2.58;;
19889;SDS011;10107;51.198;6.824;2023-06-14T20:08:19;2.70;;;2.50;;
19889;SDS011;10107;51.198;6.824;2023-06-14T20:12:24;4.13;;;2.40;;
19889;SDS011;10107;51.198;6.824;2023-06-14T20:16:26;4.40;;;2.65;;
19889;SDS011;10107;51.198;6.824;2023-06-14T20:20:29;2.83;;;2.53;;
19889;SDS011;10107;51.198;6.824;2023-06-14T20:24:31;3.13;;;2.63;;
19889;SDS011;10107;51.198;6.824;2023-06-14T20:28:35;3.85;;;2.50;;
19889;SDS011;10107;51.198;6.824;2023-06-14T20:32:38;4.63;;;2.65;;
19889;SDS011;10107;51.198;6.824;2023-06-14T20:36:43;3.75;;;2.35;;
19889;SDS011;10107;51.198;6.824;2023-06-14T20:40:45;3.10;;;2.50;;
19889;SDS011;10107;51.198;6.824;2023-06-14T20:44:47;3.45;;;2.83;;
19889;SDS011;10107;51.198;6.824;2023-06-14T20:48:49;2.63;;;2.42;;
19889;SDS011;10107;51.198;6.824;2023-06-14T20:52:52;3.15;;;2.60;;
19889;SDS011;10107;51.198;6.824;2023-06-14T20:56:55;2.78;;;2.50;;
19889;SDS011;10107;51.198;6.824;2023-06-14T21:00:57;2.88;;;2.50;;
19889;SDS011;10107;51.198;6.824;2023-06-14T21:04:59;2.42;;;2.22;;
19889;SDS011;10107;51.198;6.824;2023-06-14T21:09:03;2.67;;;2.47;;
19889;SDS011;10107;51.198;6.824;2023-06-14T21:13:06;2.83;;;2.40;;
19889;SDS011;10107;51.198;6.824;2023-06-14T21:17:07;2.72;;;2.50;;
19889;SDS011;10107;51.198;6.824;2023-06-14T21:21:10;3.38;;;2.90;;
19889;SDS011;10107;51.198;6.824;2023-06-14T21:25:13;4.53;;;3.50;;
19889;SDS011;10107;51.198;6.824;2023-06-14T21:29:16;5.78;;;4.72;;
19889;SDS011;10107;51.198;6.824;2023-06-14T21:33:17;6.87;;;5.20;;
19889;SDS011;10107;51.198;6.824;2023-06-14T21:37:19;6.28;;;4.70;;
19889;SDS011;10107;51.198;6.824;2023-06-14T21:41:22;5.85;;;4.20;;
19889;SDS011;10107;51.198;6.824;2023-06-14T21:45:24;4.05;;;3.53;;
19889;SDS011;10107;51.198;6.824;2023-06-14T21:49:26;4.40;;;3.67;;
19889;SDS011;10107;51.198;6.824;2023-06-14T21:53:28;5.55;;;3.50;;
19889;SDS011;10107;51.198;6.824;2023-06-14T21:57:33;4.03;;;3.42;;
19889;SDS011;10107;51.198;6.824;2023-06-14T22:01:35;4.47;;;3.25;;
19889;SDS011;10107;51.198;6.824;2023-06-14T22:05:36;4.07;;;3.22;;
19889;SDS011;10107;51.198;6.824;2023-06-14T22:09:38;4.65;;;2.92;;
19889;SDS011;10107;51.198;6.824;2023-06-14T22:13:42;2.80;;;2.40;;
19889;SDS011;10107;51.198;6.824;2023-06-14T22:17:44;4.13;;;3.13;;
19889;SDS011;10107;51.198;6.824;2023-06-14T22:21:46;3.72;;;2.80;;
19889;SDS011;10107;51.198;6.824;2023-06-14T22:25:51;3.47;;;3.10;;
19889;SDS011;10107;51.198;6.824;2023-06-14T22:29:55;3.13;;;2.63;;
19889;SDS011;10107;51.198;6.824;2023-06-14T22:33:58;4.90;;;2.88;;
19889;SDS011;10107;51.198;6.824;2023-06-14T22:38:00;4.07;;;2.78;;
19889;SDS011;10107;51.198;6.824;2023-06-14T22:42:02;3.40;;;3.05;;
19889;SDS011;10107;51.198;6.824;2023-06-14T22:46:08;3.20;;;2.90;;
19889;SDS011;10107;51.198;6.824;2023-06-14T22:50:19;3.58;;;2.95;;
19889;SDS011;10107;51.198;6.824;2023-06-14T22:54:21;4.30;;;3.33;;
19889;SDS011;10107;51.198;6.824;2023-06-14T22:58:23;4.05;;;2.90;;
19889;SDS011;10107;51.198;6.824;2023-06-14T23:02:26;3.78;;;3.00;;
19889;SDS011;10107;51.198;6.824;2023-06-14T23:06:30;3.38;;;2.85;;
19889;SDS011;10107;51.198;6.824;2023-06-14T23:10:33;3.27;;;2.97;;
19889;SDS011;10107;51.198;6.824;2023-06-14T23:14:37;3.15;;;2.78;;
19889;SDS011;10107;51.198;6.824;2023-06-14T23:18:40;3.10;;;2.80;;
19889;SDS011;10107;51.198;6.824;2023-06-14T23:22:42;2.78;;;2.55;;
19889;SDS011;10107;51.198;6.824;2023-06-14T23:26:44;3.75;;;2.92;;
19889;SDS011;10107;51.198;6.824;2023-06-14T23:30:47;2.25;;;2.08;;
19889;SDS011;10107;51.198;6.824;2023-06-14T23:34:50;3.00;;;2.70;;
19889;SDS011;10107;51.198;6.824;2023-06-14T23:38:52;3.72;;;2.78;;
19889;SDS011;10107;51.198;6.824;2023-06-14T23:42:54;4.40;;;3.10;;
19889;SDS011;10107;51.198;6.824;2023-06-14T23:46:57;3.70;;;2.95;;
19889;SDS011;10107;51.198;6.824;2023-06-14T23:51:08;4.47;;;3.33;;
19889;SDS011;10107;51.198;6.824;2023-06-14T23:55:10;5.73;;;3.40;;
19889;SDS011;10107;51.198;6.824;2023-06-14T23:59:19;3.78;;;3.22;;
